createdAt,value
2022-12-27T00:02:17.682Z,4.87
2022-12-27T00:04:44.471Z,4.83
2022-12-27T00:07:11.189Z,4.77
2022-12-27T00:09:37.902Z,4.71
2022-12-27T00:12:04.977Z,4.59
2022-12-27T00:14:31.854Z,4.62
2022-12-27T00:16:58.711Z,4.57
2022-12-27T00:19:25.417Z,4.56
2022-12-27T00:21:52.107Z,4.54
2022-12-27T00:24:18.901Z,4.59
2022-12-27T00:26:45.671Z,4.56
2022-12-27T00:29:16.873Z,4.56
2022-12-27T00:31:43.898Z,4.57
2022-12-27T00:34:11.040Z,4.60
2022-12-27T00:36:38.168Z,4.65
2022-12-27T00:39:05.654Z,4.73
2022-12-27T00:41:32.759Z,4.68
2022-12-27T00:43:59.534Z,4.65
2022-12-27T00:46:26.221Z,4.71
2022-12-27T00:48:53.887Z,4.73
2022-12-27T00:51:26.972Z,4.69
2022-12-27T00:53:54.392Z,4.69
2022-12-27T00:56:25.505Z,4.76
2022-12-27T00:58:57.798Z,4.71
2022-12-27T01:01:26.950Z,4.70
2022-12-27T01:03:54.204Z,4.73
2022-12-27T01:06:23.668Z,4.71
2022-12-27T01:08:50.780Z,4.72
2022-12-27T01:11:18.453Z,4.78
2022-12-27T01:13:46.026Z,4.73
2022-12-27T01:16:21.875Z,4.71
2022-12-27T01:18:49.365Z,4.68
2022-12-27T01:21:18.980Z,4.68
2022-12-27T01:23:46.741Z,4.67
2022-12-27T01:26:16.768Z,4.66
2022-12-27T01:28:43.996Z,4.65
2022-12-27T01:31:13.670Z,4.69
2022-12-27T01:33:40.631Z,4.65
2022-12-27T01:36:12.757Z,4.53
2022-12-27T01:38:39.707Z,4.47
2022-12-27T01:41:26.372Z,4.44
2022-12-27T01:43:53.110Z,4.37
2022-12-27T01:46:19.853Z,4.37
2022-12-27T01:48:46.967Z,4.21
2022-12-27T01:51:14.902Z,4.21
2022-12-27T01:53:46.596Z,4.12
2022-12-27T01:56:22.609Z,4.13
2022-12-27T01:58:56.154Z,4.14
2022-12-27T02:01:28.203Z,4.12
2022-12-27T02:04:15.242Z,4.09
2022-12-27T02:06:42.754Z,4.04
2022-12-27T02:09:18.785Z,4.11
2022-12-27T02:11:52.315Z,4.04
2022-12-27T02:14:30.223Z,4.07
2022-12-27T02:17:07.416Z,4.06
2022-12-27T02:19:46.132Z,4.12
2022-12-27T02:22:57.589Z,4.15
2022-12-27T02:25:42.489Z,4.25
2022-12-27T02:28:33.500Z,4.26
2022-12-27T02:31:08.268Z,4.25
2022-12-27T02:33:38.897Z,4.21
2022-12-27T02:36:13.246Z,4.22
2022-12-27T02:38:45.445Z,4.21
2022-12-27T02:41:31.229Z,4.23
2022-12-27T02:44:17.097Z,4.24
2022-12-27T02:47:03.269Z,4.27
2022-12-27T02:49:50.087Z,4.25
2022-12-27T02:53:07.976Z,4.21
2022-12-27T02:56:12.213Z,4.13
2022-12-27T02:58:44.568Z,4.12
2022-12-27T03:01:57.364Z,4.15
2022-12-27T03:04:45.859Z,4.18
2022-12-27T03:07:25.343Z,4.21
2022-12-27T03:10:18.685Z,4.32
2022-12-27T03:13:34.871Z,4.22
2022-12-27T03:16:25.873Z,4.26
2022-12-27T03:19:13.051Z,4.20
2022-12-27T03:22:08.040Z,4.17
2022-12-27T03:24:56.764Z,4.15
2022-12-27T03:27:32.871Z,4.01
2022-12-27T03:30:20.592Z,4.02
2022-12-27T03:33:13.585Z,3.96
2022-12-27T03:36:28.972Z,4.02
2022-12-27T03:39:06.009Z,4.00
2022-12-27T03:42:06.985Z,4.12
2022-12-27T03:44:33.754Z,4.20
2022-12-27T03:47:08.139Z,4.28
2022-12-27T03:49:39.469Z,4.32
2022-12-27T03:52:19.892Z,4.45
2022-12-27T03:54:49.982Z,4.41
2022-12-27T03:57:19.463Z,4.45
2022-12-27T03:59:46.288Z,4.38
2022-12-27T04:02:13.682Z,4.27
2022-12-27T04:04:40.685Z,4.35
2022-12-27T04:07:07.899Z,4.20
2022-12-27T04:09:53.043Z,4.15
2022-12-27T04:12:38.251Z,4.14
2022-12-27T04:15:23.849Z,4.15
2022-12-27T04:18:09.030Z,4.21
2022-12-27T04:20:54.170Z,4.23
2022-12-27T04:23:39.826Z,4.23
2022-12-27T04:26:24.968Z,4.22
2022-12-27T04:29:10.594Z,4.23
2022-12-27T04:31:55.953Z,4.23
2022-12-27T04:34:41.006Z,4.20
2022-12-27T04:37:08.671Z,4.28
2022-12-27T04:39:35.360Z,4.24
2022-12-27T04:42:20.512Z,4.21
2022-12-27T04:45:10.234Z,4.21
2022-12-27T04:47:58.430Z,4.24
2022-12-27T04:50:48.987Z,4.19
2022-12-27T04:53:37.538Z,4.21
2022-12-27T04:56:04.919Z,4.27
2022-12-27T04:58:31.943Z,4.27
2022-12-27T05:01:20.904Z,4.12
2022-12-27T05:03:50.793Z,4.15
2022-12-27T05:06:18.770Z,4.10
2022-12-27T05:09:04.061Z,4.11
2022-12-27T05:11:49.215Z,4.10
2022-12-27T05:14:16.089Z,4.13
2022-12-27T05:16:46.356Z,4.19
2022-12-27T05:19:14.902Z,4.22
2022-12-27T05:22:05.144Z,4.24
2022-12-27T05:24:51.304Z,4.24
2022-12-27T05:27:19.016Z,4.24
2022-12-27T05:29:46.493Z,4.29
2022-12-27T05:32:13.938Z,4.25
2022-12-27T05:34:41.235Z,4.30
2022-12-27T05:37:12.163Z,4.13
2022-12-27T05:39:38.844Z,4.19
2022-12-27T05:42:05.975Z,4.11
2022-12-27T05:44:32.693Z,4.08
2022-12-27T05:46:59.400Z,4.03
2022-12-27T05:49:26.173Z,4.00
2022-12-27T05:51:52.843Z,3.91
2022-12-27T05:54:19.687Z,3.89
2022-12-27T05:56:46.357Z,3.85
2022-12-27T05:59:13.075Z,3.81
2022-12-27T06:01:39.856Z,3.84
2022-12-27T06:04:19.222Z,3.89
2022-12-27T06:06:45.923Z,3.97
2022-12-27T06:09:12.676Z,3.90
2022-12-27T06:11:39.375Z,3.90
2022-12-27T06:14:06.068Z,3.84
2022-12-27T06:16:32.845Z,3.89
2022-12-27T06:18:59.558Z,3.79
2022-12-27T06:21:26.344Z,3.79
2022-12-27T06:23:53.110Z,3.84
2022-12-27T06:26:23.358Z,3.83
2022-12-27T06:28:51.166Z,3.86
2022-12-27T06:31:19.728Z,3.91
2022-12-27T06:33:47.966Z,3.84
2022-12-27T06:36:16.946Z,3.82
2022-12-27T06:38:44.649Z,3.84
2022-12-27T06:41:14.456Z,3.76
2022-12-27T06:43:41.559Z,3.82
2022-12-27T06:46:17.158Z,3.75
2022-12-27T06:48:47.864Z,3.71
2022-12-27T06:51:16.678Z,3.69
2022-12-27T06:53:43.426Z,3.63
2022-12-27T06:56:18.574Z,3.56
2022-12-27T06:58:46.982Z,3.57
2022-12-27T07:01:20.202Z,3.64
2022-12-27T07:03:55.023Z,3.57
2022-12-27T07:06:23.659Z,3.57
2022-12-27T07:08:51.668Z,3.60
2022-12-27T07:11:19.259Z,3.55
2022-12-27T07:13:48.478Z,3.53
2022-12-27T07:16:17.634Z,3.49
2022-12-27T07:18:45.145Z,3.46
2022-12-27T07:21:14.725Z,3.54
2022-12-27T07:23:42.392Z,3.48
2022-12-27T07:26:12.198Z,3.47
2022-12-27T07:28:39.795Z,3.45
2022-12-27T07:31:11.536Z,3.43
2022-12-27T07:33:39.104Z,3.49
2022-12-27T07:36:08.982Z,3.47
2022-12-27T07:38:35.696Z,3.47
2022-12-27T07:41:03.295Z,3.40
2022-12-27T07:43:36.421Z,3.39
2022-12-27T07:46:24.415Z,3.32
2022-12-27T07:48:55.361Z,3.36
2022-12-27T07:51:22.687Z,3.39
2022-12-27T07:53:50.217Z,3.47
2022-12-27T07:56:26.148Z,3.38
2022-12-27T07:58:55.987Z,3.37
2022-12-27T08:01:24.555Z,3.39
2022-12-27T08:03:51.613Z,3.40
2022-12-27T08:06:28.971Z,3.46
2022-12-27T08:08:58.458Z,3.40
2022-12-27T08:11:26.688Z,3.46
2022-12-27T08:13:53.621Z,3.41
2022-12-27T08:16:23.344Z,3.46
2022-12-27T08:18:50.316Z,3.53
2022-12-27T08:21:17.223Z,3.62
2022-12-27T08:23:43.995Z,3.69
2022-12-27T08:26:11.106Z,3.69
2022-12-27T08:28:38.053Z,3.72
2022-12-27T08:31:10.659Z,3.77
2022-12-27T08:33:37.694Z,3.84
2022-12-27T08:38:56.228Z,3.91
2022-12-27T08:41:23.223Z,3.98
2022-12-27T08:43:50.269Z,4.10
2022-12-27T08:46:19.542Z,4.23
2022-12-27T08:48:48.846Z,4.22
2022-12-27T08:51:23.886Z,4.19
2022-12-27T08:53:58.373Z,4.24
2022-12-27T08:56:25.148Z,4.20
2022-12-27T08:58:51.869Z,4.12
2022-12-27T09:01:18.769Z,4.03
2022-12-27T09:03:45.556Z,3.99
2022-12-27T09:06:18.191Z,3.86
2022-12-27T09:08:46.575Z,3.83
2022-12-27T09:11:23.591Z,3.77
2022-12-27T09:13:50.723Z,3.77
2022-12-27T09:16:22.666Z,3.72
2022-12-27T09:18:51.882Z,3.79
2022-12-27T09:21:20.969Z,3.94
2022-12-27T09:23:48.692Z,4.00
2022-12-27T09:26:18.382Z,4.11
2022-12-27T09:28:46.790Z,4.13
2022-12-27T09:31:14.631Z,4.12
2022-12-27T09:33:41.477Z,4.23
2022-12-27T09:36:11.142Z,4.24
2022-12-27T09:38:40.052Z,4.25
2022-12-27T09:44:38.219Z,4.24
2022-12-27T09:47:14.271Z,4.21
2022-12-27T09:49:49.383Z,4.24
2022-12-27T09:52:17.924Z,4.26
2022-12-27T09:54:49.877Z,4.30
2022-12-27T09:57:25.048Z,4.40
2022-12-27T09:59:58.388Z,4.53
2022-12-27T10:02:27.402Z,4.60
2022-12-27T10:07:57.533Z,4.90
2022-12-27T10:10:27.382Z,5.03
2022-12-27T10:13:35.108Z,5.02
2022-12-27T10:16:28.756Z,5.08
2022-12-27T10:19:10.588Z,5.05
2022-12-27T10:21:43.945Z,4.96
2022-12-27T10:24:22.738Z,5.03
2022-12-27T10:26:50.762Z,4.91
2022-12-27T10:29:22.358Z,4.91
2022-12-27T10:31:49.254Z,4.90
2022-12-27T10:34:18.056Z,4.90
2022-12-27T10:36:45.502Z,4.90
2022-12-27T10:39:29.350Z,4.85
2022-12-27T10:42:13.944Z,4.77
2022-12-27T10:44:40.643Z,4.78
2022-12-27T10:47:07.435Z,4.81
2022-12-27T10:49:35.477Z,4.87
2022-12-27T10:52:19.481Z,4.93
2022-12-27T10:54:52.323Z,4.93
2022-12-27T10:57:36.327Z,4.89
2022-12-27T11:00:24.375Z,4.97
2022-12-27T11:02:57.125Z,5.07
2022-12-27T11:05:35.871Z,5.04
2022-12-27T11:08:20.418Z,5.13
2022-12-27T11:10:47.675Z,5.17
2022-12-27T11:13:19.017Z,5.28
2022-12-27T11:15:58.779Z,5.26
2022-12-27T11:18:26.611Z,5.17
2022-12-27T11:20:57.260Z,5.06
2022-12-27T11:23:35.810Z,4.93
2022-12-27T11:26:06.232Z,4.80
2022-12-27T11:28:46.394Z,4.67
2022-12-27T11:31:15.851Z,4.68
2022-12-27T11:33:45.640Z,4.66
2022-12-27T11:36:13.960Z,4.72
2022-12-27T11:38:44.847Z,4.67
2022-12-27T11:41:28.637Z,4.74
2022-12-27T11:44:33.929Z,4.69
2022-12-27T11:47:06.358Z,4.77
2022-12-27T11:49:40.344Z,4.75
2022-12-27T11:52:19.262Z,4.69
2022-12-27T11:54:58.152Z,4.68
2022-12-27T11:57:43.545Z,4.74
2022-12-27T12:00:22.201Z,4.66
2022-12-27T12:03:43.226Z,4.62
2022-12-27T12:06:34.174Z,4.54
2022-12-27T12:09:27.423Z,4.50
2022-12-27T12:12:23.108Z,4.45
2022-12-27T12:15:08.492Z,4.43
2022-12-27T12:17:49.979Z,4.35
2022-12-27T12:20:50.466Z,4.38
2022-12-27T12:23:50.196Z,4.44
2022-12-27T12:26:30.112Z,4.53
2022-12-27T12:29:38.125Z,4.65
2022-12-27T12:32:35.026Z,4.76
2022-12-27T12:35:13.350Z,4.83
2022-12-27T12:37:46.078Z,5.03
2022-12-27T12:40:41.985Z,5.00
2022-12-27T12:43:47.043Z,4.92
2022-12-27T12:46:42.944Z,4.97
2022-12-27T12:49:28.191Z,4.93
2022-12-27T12:52:13.550Z,4.86
2022-12-27T12:55:01.063Z,5.04
2022-12-27T12:57:59.484Z,5.14
2022-12-27T13:00:32.270Z,5.17
2022-12-27T13:03:22.715Z,5.18
2022-12-27T13:06:00.912Z,5.35
2022-12-27T13:08:47.738Z,5.38
2022-12-27T13:11:48.307Z,5.28
2022-12-27T13:14:34.918Z,5.24
2022-12-27T13:17:43.124Z,5.16
2022-12-27T13:20:24.533Z,5.09
2022-12-27T13:22:54.211Z,5.02
2022-12-27T13:25:26.872Z,4.98
2022-12-27T13:28:04.535Z,5.04
2022-12-27T13:30:42.802Z,4.98
2022-12-27T13:33:26.421Z,4.93
2022-12-27T13:35:59.693Z,4.92
2022-12-27T13:38:48.188Z,4.86
2022-12-27T13:41:31.478Z,4.80
2022-12-27T13:44:23.652Z,4.74
2022-12-27T13:47:29.373Z,4.85
2022-12-27T13:50:12.917Z,4.72
2022-12-27T13:53:07.590Z,4.80
2022-12-27T13:55:42.236Z,4.72
2022-12-27T13:58:57.801Z,4.65
2022-12-27T14:01:29.300Z,4.64
2022-12-27T14:04:14.857Z,4.64
2022-12-27T14:07:18.562Z,4.66
2022-12-27T14:10:25.572Z,4.71
2022-12-27T14:12:57.088Z,4.71
2022-12-27T14:15:42.632Z,4.74
2022-12-27T14:18:46.923Z,4.82
2022-12-27T14:21:43.861Z,4.77
2022-12-27T14:24:35.227Z,4.71
2022-12-27T14:27:29.613Z,4.73
2022-12-27T14:30:03.912Z,4.66
2022-12-27T14:33:06.798Z,4.66
2022-12-27T14:36:44.498Z,4.65
2022-12-27T14:39:29.183Z,4.66
2022-12-27T14:42:31.178Z,4.65
2022-12-27T14:45:35.148Z,4.68
2022-12-27T14:48:16.837Z,4.69
2022-12-27T14:51:32.751Z,4.80
2022-12-27T14:54:30.626Z,4.83
2022-12-27T14:57:03.727Z,4.85
2022-12-27T14:59:33.660Z,4.79
2022-12-27T15:02:42.093Z,4.81
2022-12-27T15:05:46.722Z,4.84
2022-12-27T15:08:46.666Z,4.93
2022-12-27T15:11:53.803Z,5.02
2022-12-27T15:14:59.861Z,5.01
2022-12-27T15:17:41.040Z,4.95
2022-12-27T15:20:24.930Z,4.91
2022-12-27T15:23:00.629Z,4.93
2022-12-27T15:25:51.590Z,4.88
2022-12-27T15:28:33.529Z,4.91
2022-12-27T15:31:12.322Z,4.96
2022-12-27T15:34:09.093Z,4.92
2022-12-27T15:36:38.381Z,4.82
2022-12-27T15:39:05.381Z,4.75
2022-12-27T15:41:47.243Z,4.70
2022-12-27T15:44:42.144Z,4.66
2022-12-27T15:47:36.634Z,4.59
2022-12-27T15:50:47.780Z,4.53
2022-12-27T15:53:52.878Z,4.51
2022-12-27T15:56:32.844Z,4.49
2022-12-27T15:59:37.074Z,4.47
2022-12-27T16:02:25.928Z,4.46
2022-12-27T16:04:56.985Z,4.42
2022-12-27T16:07:44.240Z,4.46
2022-12-27T16:10:29.755Z,4.43
2022-12-27T16:13:23.137Z,4.45
2022-12-27T16:15:53.217Z,4.34
2022-12-27T16:18:19.874Z,4.51
2022-12-27T16:21:06.902Z,4.49
2022-12-27T16:23:42.289Z,4.29
2022-12-27T16:26:26.228Z,4.35
2022-12-27T16:28:59.086Z,4.36
2022-12-27T16:31:32.019Z,4.18
2022-12-27T16:34:10.847Z,4.26
2022-12-27T16:36:44.544Z,4.22
2022-12-27T16:39:11.524Z,4.25
2022-12-27T16:41:56.695Z,4.32
2022-12-27T16:44:38.024Z,4.50
2022-12-27T16:47:26.390Z,4.46
2022-12-27T16:50:05.523Z,4.44
2022-12-27T16:52:52.838Z,4.44
2022-12-27T16:55:47.679Z,4.34
2022-12-27T16:58:27.115Z,4.28
2022-12-27T17:00:56.447Z,4.20
2022-12-27T17:03:32.227Z,4.20
2022-12-27T17:09:10.602Z,4.22
2022-12-27T17:11:43.417Z,4.23
2022-12-27T17:14:20.259Z,4.21
2022-12-27T17:16:51.744Z,4.33
2022-12-27T17:19:36.419Z,4.19
2022-12-27T17:22:06.437Z,4.08
2022-12-27T17:24:33.897Z,4.11
2022-12-27T17:27:30.447Z,4.09
2022-12-27T17:30:06.518Z,3.96
2022-12-27T17:33:03.656Z,3.98
2022-12-27T17:35:41.118Z,4.09
2022-12-27T17:38:29.952Z,4.11
2022-12-27T17:40:56.607Z,4.29
2022-12-27T17:44:05.282Z,4.28
2022-12-27T17:46:55.065Z,4.23
2022-12-27T17:49:30.976Z,4.27
2022-12-27T17:52:18.141Z,4.41
2022-12-27T17:55:03.912Z,4.26
2022-12-27T17:57:49.236Z,4.23
2022-12-27T18:00:26.416Z,4.47
2022-12-27T18:02:55.679Z,4.28
2022-12-27T18:05:33.518Z,4.30
2022-12-27T18:08:18.165Z,4.34
2022-12-27T18:10:44.901Z,4.34
2022-12-27T18:13:18.016Z,4.27
2022-12-27T18:15:47.064Z,4.36
2022-12-27T18:18:26.897Z,4.40
2022-12-27T18:21:11.719Z,4.38
2022-12-27T18:23:43.239Z,4.45
2022-12-27T18:26:13.981Z,4.33
2022-12-27T18:28:42.052Z,4.36
2022-12-27T18:31:16.186Z,4.34
2022-12-27T18:33:50.714Z,4.27
2022-12-27T18:36:32.371Z,4.33
2022-12-27T18:39:03.940Z,4.36
2022-12-27T18:41:48.982Z,4.44
2022-12-27T18:44:46.444Z,4.42
2022-12-27T18:47:21.261Z,4.33
2022-12-27T18:49:57.973Z,4.39
2022-12-27T18:52:30.434Z,4.34
2022-12-27T18:55:12.705Z,4.30
2022-12-27T18:57:39.625Z,4.24
2022-12-27T19:00:14.512Z,4.18
2022-12-27T19:02:42.418Z,4.27
2022-12-27T19:05:22.019Z,4.22
2022-12-27T19:08:00.244Z,4.43
2022-12-27T19:10:29.671Z,4.30
2022-12-27T19:12:57.270Z,4.38
2022-12-27T19:15:43.265Z,4.47
2022-12-27T19:18:27.446Z,4.41
2022-12-27T19:21:00.701Z,4.49
2022-12-27T19:23:36.463Z,4.50
2022-12-27T19:26:15.379Z,4.61
2022-12-27T19:29:00.329Z,4.73
2022-12-27T19:31:27.507Z,4.70
2022-12-27T19:34:09.700Z,4.74
2022-12-27T19:36:42.389Z,4.75
2022-12-27T19:39:21.885Z,4.76
2022-12-27T19:41:50.357Z,4.74
2022-12-27T19:44:17.731Z,4.75
2022-12-27T19:46:44.567Z,4.79
2022-12-27T19:51:58.578Z,4.69
2022-12-27T19:54:25.418Z,4.87
2022-12-27T19:56:52.302Z,4.97
2022-12-27T19:59:25.454Z,4.87
2022-12-27T20:01:52.782Z,4.85
2022-12-27T20:04:19.652Z,4.95
2022-12-27T20:06:48.722Z,4.94
2022-12-27T20:09:18.284Z,4.95
2022-12-27T20:11:46.241Z,5.07
2022-12-27T20:14:14.892Z,4.99
2022-12-27T20:16:41.794Z,5.01
2022-12-27T20:19:12.054Z,5.09
2022-12-27T20:21:40.004Z,5.03
2022-12-27T20:24:07.217Z,5.03
2022-12-27T20:26:34.008Z,5.19
2022-12-27T20:29:01.699Z,5.16
2022-12-27T20:31:28.515Z,5.03
2022-12-27T20:33:55.919Z,5.19
2022-12-27T20:36:23.761Z,5.09
2022-12-27T20:38:52.216Z,5.12
2022-12-27T20:41:21.788Z,5.30
2022-12-27T20:43:53.243Z,5.20
2022-12-27T20:46:20.233Z,5.25
2022-12-27T20:48:47.500Z,5.25
2022-12-27T20:51:20.199Z,5.33
2022-12-27T20:53:49.212Z,5.36
2022-12-27T20:56:16.760Z,5.45
2022-12-27T20:58:43.446Z,5.38
2022-12-27T21:01:16.431Z,5.40
2022-12-27T21:03:44.268Z,5.50
2022-12-27T21:06:16.689Z,5.31
2022-12-27T21:08:50.597Z,5.37
2022-12-27T21:11:24.119Z,5.33
2022-12-27T21:13:51.016Z,5.26
2022-12-27T21:16:23.719Z,5.30
2022-12-27T21:18:51.124Z,5.42
2022-12-27T21:21:28.306Z,5.30
2022-12-27T21:24:01.047Z,5.29
2022-12-27T21:26:36.605Z,5.38
2022-12-27T21:29:05.105Z,5.36
2022-12-27T21:31:32.047Z,5.42
2022-12-27T21:33:59.567Z,5.37
2022-12-27T21:36:58.137Z,5.38
2022-12-27T21:39:26.630Z,5.34
2022-12-27T21:41:53.301Z,5.43
2022-12-27T21:44:22.042Z,5.54
2022-12-27T21:46:48.795Z,5.49
2022-12-27T21:49:15.438Z,5.48
2022-12-27T21:51:43.246Z,5.47
2022-12-27T21:54:11.416Z,5.52
2022-12-27T21:56:39.141Z,5.48
2022-12-27T21:59:10.838Z,5.50
2022-12-27T22:01:50.193Z,5.52
2022-12-27T22:04:20.067Z,5.67
2022-12-27T22:06:47.736Z,5.46
2022-12-27T22:09:15.206Z,5.55
2022-12-27T22:11:41.957Z,5.69
2022-12-27T22:14:08.834Z,5.75
2022-12-27T22:16:37.983Z,5.68
2022-12-27T22:19:10.172Z,5.65
2022-12-27T22:21:38.751Z,5.65
2022-12-27T22:24:05.684Z,5.75
2022-12-27T22:26:35.118Z,5.61
2022-12-27T22:29:02.044Z,5.66
2022-12-27T22:31:32.879Z,5.71
2022-12-27T22:33:59.614Z,5.81
2022-12-27T22:36:27.520Z,5.77
2022-12-27T22:38:58.769Z,5.84
2022-12-27T22:41:28.921Z,5.73
2022-12-27T22:44:08.496Z,5.72
2022-12-27T22:49:21.964Z,5.71
2022-12-27T22:51:48.665Z,5.84
2022-12-27T22:54:15.683Z,5.84
2022-12-27T22:56:42.957Z,5.83
2022-12-27T22:59:16.394Z,5.87
2022-12-27T23:01:44.964Z,5.87
2022-12-27T23:04:13.657Z,5.86
2022-12-27T23:06:41.139Z,5.71
2022-12-27T23:09:08.009Z,5.80
2022-12-27T23:11:40.963Z,5.85
2022-12-27T23:14:14.028Z,5.90
2022-12-27T23:16:43.891Z,5.97
2022-12-27T23:19:11.689Z,5.83
2022-12-27T23:21:38.395Z,5.95
2022-12-27T23:24:06.283Z,5.90
2022-12-27T23:26:33.189Z,5.93
2022-12-27T23:28:59.982Z,5.91
2022-12-27T23:31:27.200Z,5.85
2022-12-27T23:33:54.350Z,5.84
2022-12-27T23:36:22.007Z,5.97
2022-12-27T23:38:49.773Z,5.88
2022-12-27T23:41:22.641Z,5.93
2022-12-27T23:43:53.197Z,5.91
2022-12-27T23:46:28.000Z,5.92
2022-12-27T23:48:56.028Z,5.94
2022-12-27T23:51:23.281Z,5.90
2022-12-27T23:53:50.872Z,5.93
2022-12-27T23:56:20.467Z,5.92
2022-12-27T23:58:51.181Z,6.01
